sensor_id;sensor_type;location;lat;lon;timestamp;pressure;altitude;pressure_sealevel;temperature;humidity
6020;BME280;3038;51.122;6.840;2023-03-19T00:00:28;63325.50;;;-144.63;100.00
6020;BME280;3038;51.122;6.840;2023-03-19T00:02:53;63325.50;;;-144.63;100.00
6020;BME280;3038;51.122;6.840;2023-03-19T00:05:18;63325.50;;;-144.63;100.00
6020;BME280;3038;51.122;6.840;2023-03-19T00:07:44;63325.50;;;-144.63;100.00
6020;BME280;3038;51.122;6.840;2023-03-19T00:10:09;63325.50;;;-144.63;100.00
6020;BME280;3038;51.122;6.840;2023-03-19T00:12:35;63325.50;;;-144.63;100.00
6020;BME280;3038;51.122;6.840;2023-03-19T00:15:01;63325.50;;;-144.63;100.00
6020;BME280;3038;51.122;6.840;2023-03-19T00:17:26;63325.50;;;-144.63;100.00
6020;BME280;3038;51.122;6.840;2023-03-19T00:19:51;63325.50;;;-144.63;100.00
6020;BME280;3038;51.122;6.840;2023-03-19T00:22:17;63325.50;;;-144.63;100.00
6020;BME280;3038;51.122;6.840;2023-03-19T00:24:42;63325.50;;;-144.63;100.00
6020;BME280;3038;51.122;6.840;2023-03-19T00:27:08;63325.50;;;-144.63;100.00
6020;BME280;3038;51.122;6.840;2023-03-19T00:29:34;63325.50;;;-144.63;100.00
6020;BME280;3038;51.122;6.840;2023-03-19T00:31:59;63325.50;;;-144.63;100.00
6020;BME280;3038;51.122;6.840;2023-03-19T00:34:25;63325.50;;;-144.63;100.00
6020;BME280;3038;51.122;6.840;2023-03-19T00:36:51;63325.50;;;-144.63;100.00
6020;BME280;3038;51.122;6.840;2023-03-19T00:39:16;63325.50;;;-144.63;100.00
6020;BME280;3038;51.122;6.840;2023-03-19T00:41:41;63325.50;;;-144.63;100.00
6020;BME280;3038;51.122;6.840;2023-03-19T00:44:15;63325.50;;;-144.63;100.00
6020;BME280;3038;51.122;6.840;2023-03-19T00:46:41;63325.50;;;-144.63;100.00
6020;BME280;3038;51.122;6.840;2023-03-19T00:49:06;63325.50;;;-144.63;100.00
6020;BME280;3038;51.122;6.840;2023-03-19T00:51:31;63325.50;;;-144.63;100.00
6020;BME280;3038;51.122;6.840;2023-03-19T00:53:57;63325.50;;;-144.63;100.00
6020;BME280;3038;51.122;6.840;2023-03-19T00:56:22;63325.50;;;-144.63;100.00
6020;BME280;3038;51.122;6.840;2023-03-19T00:58:47;63325.50;;;-144.63;100.00
6020;BME280;3038;51.122;6.840;2023-03-19T01:01:15;63325.50;;;-144.63;100.00
6020;BME280;3038;51.122;6.840;2023-03-19T01:03:42;63325.50;;;-144.63;100.00
6020;BME280;3038;51.122;6.840;2023-03-19T01:06:07;63325.50;;;-144.63;100.00
6020;BME280;3038;51.122;6.840;2023-03-19T01:08:33;63325.50;;;-144.63;100.00
6020;BME280;3038;51.122;6.840;2023-03-19T01:11:11;63325.50;;;-144.63;100.00
6020;BME280;3038;51.122;6.840;2023-03-19T01:13:37;63325.50;;;-144.63;100.00
6020;BME280;3038;51.122;6.840;2023-03-19T01:16:02;63325.50;;;-144.63;100.00
6020;BME280;3038;51.122;6.840;2023-03-19T01:18:28;63325.50;;;-144.63;100.00
6020;BME280;3038;51.122;6.840;2023-03-19T01:20:54;63325.50;;;-144.63;100.00
6020;BME280;3038;51.122;6.840;2023-03-19T01:23:19;63325.50;;;-144.63;100.00
6020;BME280;3038;51.122;6.840;2023-03-19T01:25:45;63325.50;;;-144.63;100.00
6020;BME280;3038;51.122;6.840;2023-03-19T01:28:10;63325.50;;;-144.63;100.00
6020;BME280;3038;51.122;6.840;2023-03-19T01:30:36;63325.50;;;-144.63;100.00
6020;BME280;3038;51.122;6.840;2023-03-19T01:33:01;63325.50;;;-144.63;100.00
6020;BME280;3038;51.122;6.840;2023-03-19T01:35:26;63325.50;;;-144.63;100.00
6020;BME280;3038;51.122;6.840;2023-03-19T01:37:52;63325.50;;;-144.63;100.00
6020;BME280;3038;51.122;6.840;2023-03-19T01:40:18;63325.50;;;-144.63;100.00
6020;BME280;3038;51.122;6.840;2023-03-19T01:42:57;63325.50;;;-144.63;100.00
6020;BME280;3038;51.122;6.840;2023-03-19T01:45:38;63325.50;;;-144.63;100.00
6020;BME280;3038;51.122;6.840;2023-03-19T01:48:04;63325.50;;;-144.63;100.00
6020;BME280;3038;51.122;6.840;2023-03-19T01:50:39;63325.50;;;-144.63;100.00
6020;BME280;3038;51.122;6.840;2023-03-19T01:53:07;63325.50;;;-144.63;100.00
6020;BME280;3038;51.122;6.840;2023-03-19T01:55:33;63325.50;;;-144.63;100.00
6020;BME280;3038;51.122;6.840;2023-03-19T01:57:59;63325.50;;;-144.63;100.00
6020;BME280;3038;51.122;6.840;2023-03-19T02:00:26;63325.50;;;-144.63;100.00
6020;BME280;3038;51.122;6.840;2023-03-19T02:02:55;63325.50;;;-144.63;100.00
6020;BME280;3038;51.122;6.840;2023-03-19T02:05:24;63325.50;;;-144.63;100.00
6020;BME280;3038;51.122;6.840;2023-03-19T02:08:02;63325.50;;;-144.63;100.00
6020;BME280;3038;51.122;6.840;2023-03-19T02:10:29;63325.50;;;-144.63;100.00
6020;BME280;3038;51.122;6.840;2023-03-19T02:12:55;63325.50;;;-144.63;100.00
6020;BME280;3038;51.122;6.840;2023-03-19T02:15:21;63325.50;;;-144.63;100.00
6020;BME280;3038;51.122;6.840;2023-03-19T02:17:46;63325.50;;;-144.63;100.00
6020;BME280;3038;51.122;6.840;2023-03-19T02:22:47;63325.50;;;-144.63;100.00
6020;BME280;3038;51.122;6.840;2023-03-19T02:25:26;63325.50;;;-144.63;100.00
6020;BME280;3038;51.122;6.840;2023-03-19T02:27:53;63325.50;;;-144.63;100.00
6020;BME280;3038;51.122;6.840;2023-03-19T02:30:25;63325.50;;;-144.63;100.00
6020;BME280;3038;51.122;6.840;2023-03-19T02:32:51;63325.50;;;-144.63;100.00
6020;BME280;3038;51.122;6.840;2023-03-19T02:35:17;63325.50;;;-144.63;100.00
6020;BME280;3038;51.122;6.840;2023-03-19T02:37:42;63325.50;;;-144.63;100.00
6020;BME280;3038;51.122;6.840;2023-03-19T02:40:11;63325.50;;;-144.63;100.00
6020;BME280;3038;51.122;6.840;2023-03-19T02:42:39;63325.50;;;-144.63;100.00
6020;BME280;3038;51.122;6.840;2023-03-19T02:45:05;63325.50;;;-144.63;100.00
6020;BME280;3038;51.122;6.840;2023-03-19T02:47:31;63325.50;;;-144.63;100.00
6020;BME280;3038;51.122;6.840;2023-03-19T02:49:56;63325.50;;;-144.63;100.00
6020;BME280;3038;51.122;6.840;2023-03-19T02:52:22;63325.50;;;-144.63;100.00
6020;BME280;3038;51.122;6.840;2023-03-19T02:54:47;63325.50;;;-144.63;100.00
6020;BME280;3038;51.122;6.840;2023-03-19T02:57:13;63325.50;;;-144.63;100.00
6020;BME280;3038;51.122;6.840;2023-03-19T02:59:38;63325.50;;;-144.63;100.00
6020;BME280;3038;51.122;6.840;2023-03-19T03:02:04;63325.50;;;-144.63;100.00
6020;BME280;3038;51.122;6.840;2023-03-19T03:04:31;63325.50;;;-144.63;100.00
6020;BME280;3038;51.122;6.840;2023-03-19T03:06:57;63325.50;;;-144.63;100.00
6020;BME280;3038;51.122;6.840;2023-03-19T03:09:23;63325.50;;;-144.63;100.00
6020;BME280;3038;51.122;6.840;2023-03-19T03:11:48;63325.50;;;-144.63;100.00
6020;BME280;3038;51.122;6.840;2023-03-19T03:14:14;63325.50;;;-144.63;100.00
6020;BME280;3038;51.122;6.840;2023-03-19T03:16:39;63325.50;;;-144.63;100.00
6020;BME280;3038;51.122;6.840;2023-03-19T03:19:05;63325.50;;;-144.63;100.00
6020;BME280;3038;51.122;6.840;2023-03-19T03:21:31;63325.50;;;-144.63;100.00
6020;BME280;3038;51.122;6.840;2023-03-19T03:23:56;63325.50;;;-144.63;100.00
6020;BME280;3038;51.122;6.840;2023-03-19T03:26:22;63325.50;;;-144.63;100.00
6020;BME280;3038;51.122;6.840;2023-03-19T03:28:47;63325.50;;;-144.63;100.00
6020;BME280;3038;51.122;6.840;2023-03-19T03:31:13;63325.50;;;-144.63;100.00
6020;BME280;3038;51.122;6.840;2023-03-19T03:33:39;63325.50;;;-144.63;100.00
6020;BME280;3038;51.122;6.840;2023-03-19T03:36:05;63325.50;;;-144.63;100.00
6020;BME280;3038;51.122;6.840;2023-03-19T03:38:31;63325.50;;;-144.63;100.00
6020;BME280;3038;51.122;6.840;2023-03-19T03:40:57;63325.50;;;-144.63;100.00
6020;BME280;3038;51.122;6.840;2023-03-19T03:43:23;63325.50;;;-144.63;100.00
6020;BME280;3038;51.122;6.840;2023-03-19T03:45:49;63325.50;;;-144.63;100.00
6020;BME280;3038;51.122;6.840;2023-03-19T03:48:15;63325.50;;;-144.63;100.00
6020;BME280;3038;51.122;6.840;2023-03-19T03:50:41;63325.50;;;-144.63;100.00
6020;BME280;3038;51.122;6.840;2023-03-19T03:53:07;63325.50;;;-144.63;100.00
6020;BME280;3038;51.122;6.840;2023-03-19T03:55:33;63325.50;;;-144.63;100.00
6020;BME280;3038;51.122;6.840;2023-03-19T03:57:59;63325.50;;;-144.63;100.00
6020;BME280;3038;51.122;6.840;2023-03-19T04:00:25;63325.50;;;-144.63;100.00
6020;BME280;3038;51.122;6.840;2023-03-19T04:02:51;63325.50;;;-144.63;100.00
6020;BME280;3038;51.122;6.840;2023-03-19T04:05:16;63325.50;;;-144.63;100.00
6020;BME280;3038;51.122;6.840;2023-03-19T04:07:42;63325.50;;;-144.63;100.00
6020;BME280;3038;51.122;6.840;2023-03-19T04:10:09;63325.50;;;-144.63;100.00
6020;BME280;3038;51.122;6.840;2023-03-19T04:12:36;63325.50;;;-144.63;100.00
6020;BME280;3038;51.122;6.840;2023-03-19T04:15:03;63325.50;;;-144.63;100.00
6020;BME280;3038;51.122;6.840;2023-03-19T04:17:28;63325.50;;;-144.63;100.00
6020;BME280;3038;51.122;6.840;2023-03-19T04:19:53;63325.50;;;-144.63;100.00
6020;BME280;3038;51.122;6.840;2023-03-19T04:22:19;63325.50;;;-144.63;100.00
6020;BME280;3038;51.122;6.840;2023-03-19T04:24:44;63325.50;;;-144.63;100.00
6020;BME280;3038;51.122;6.840;2023-03-19T04:27:09;63325.50;;;-144.63;100.00
6020;BME280;3038;51.122;6.840;2023-03-19T04:29:35;63325.50;;;-144.63;100.00
6020;BME280;3038;51.122;6.840;2023-03-19T04:32:00;63325.50;;;-144.63;100.00
6020;BME280;3038;51.122;6.840;2023-03-19T04:34:26;63325.50;;;-144.63;100.00
6020;BME280;3038;51.122;6.840;2023-03-19T04:36:52;63325.50;;;-144.63;100.00
6020;BME280;3038;51.122;6.840;2023-03-19T04:39:17;63325.50;;;-144.63;100.00
6020;BME280;3038;51.122;6.840;2023-03-19T04:41:43;63325.50;;;-144.63;100.00
6020;BME280;3038;51.122;6.840;2023-03-19T04:44:09;63325.50;;;-144.63;100.00
6020;BME280;3038;51.122;6.840;2023-03-19T04:46:34;63325.50;;;-144.63;100.00
6020;BME280;3038;51.122;6.840;2023-03-19T04:49:00;63325.50;;;-144.63;100.00
6020;BME280;3038;51.122;6.840;2023-03-19T04:51:26;63325.50;;;-144.63;100.00
6020;BME280;3038;51.122;6.840;2023-03-19T04:53:51;63325.50;;;-144.63;100.00
6020;BME280;3038;51.122;6.840;2023-03-19T04:56:17;63325.50;;;-144.63;100.00
6020;BME280;3038;51.122;6.840;2023-03-19T04:58:43;63325.50;;;-144.63;100.00
6020;BME280;3038;51.122;6.840;2023-03-19T05:01:08;63325.50;;;-144.63;100.00
6020;BME280;3038;51.122;6.840;2023-03-19T05:03:34;63325.50;;;-144.63;100.00
6020;BME280;3038;51.122;6.840;2023-03-19T05:06:00;63325.50;;;-144.63;100.00
6020;BME280;3038;51.122;6.840;2023-03-19T05:08:25;63325.50;;;-144.63;100.00
6020;BME280;3038;51.122;6.840;2023-03-19T05:10:51;63325.50;;;-144.63;100.00
6020;BME280;3038;51.122;6.840;2023-03-19T05:13:16;63325.50;;;-144.63;100.00
6020;BME280;3038;51.122;6.840;2023-03-19T05:15:43;63325.50;;;-144.63;100.00
6020;BME280;3038;51.122;6.840;2023-03-19T05:18:09;63325.50;;;-144.63;100.00
6020;BME280;3038;51.122;6.840;2023-03-19T05:20:35;63325.50;;;-144.63;100.00
6020;BME280;3038;51.122;6.840;2023-03-19T05:23:01;63325.50;;;-144.63;100.00
6020;BME280;3038;51.122;6.840;2023-03-19T05:25:27;63325.50;;;-144.63;100.00
6020;BME280;3038;51.122;6.840;2023-03-19T05:27:53;63325.50;;;-144.63;100.00
6020;BME280;3038;51.122;6.840;2023-03-19T05:30:18;63325.50;;;-144.63;100.00
6020;BME280;3038;51.122;6.840;2023-03-19T05:32:44;63325.50;;;-144.63;100.00
6020;BME280;3038;51.122;6.840;2023-03-19T05:35:10;63325.50;;;-144.63;100.00
6020;BME280;3038;51.122;6.840;2023-03-19T05:37:37;63325.50;;;-144.63;100.00
6020;BME280;3038;51.122;6.840;2023-03-19T05:40:02;63325.50;;;-144.63;100.00
6020;BME280;3038;51.122;6.840;2023-03-19T05:42:28;63325.50;;;-144.63;100.00
6020;BME280;3038;51.122;6.840;2023-03-19T05:44:53;63325.50;;;-144.63;100.00
6020;BME280;3038;51.122;6.840;2023-03-19T05:47:19;63325.50;;;-144.63;100.00
6020;BME280;3038;51.122;6.840;2023-03-19T05:49:46;63325.50;;;-144.63;100.00
6020;BME280;3038;51.122;6.840;2023-03-19T05:52:11;63325.50;;;-144.63;100.00
6020;BME280;3038;51.122;6.840;2023-03-19T05:54:37;63325.50;;;-144.63;100.00
6020;BME280;3038;51.122;6.840;2023-03-19T05:57:02;63325.50;;;-144.63;100.00
6020;BME280;3038;51.122;6.840;2023-03-19T05:59:28;63325.50;;;-144.63;100.00
6020;BME280;3038;51.122;6.840;2023-03-19T06:01:53;63325.50;;;-144.63;100.00
6020;BME280;3038;51.122;6.840;2023-03-19T06:04:19;63325.50;;;-144.63;100.00
6020;BME280;3038;51.122;6.840;2023-03-19T06:06:44;63325.50;;;-144.63;100.00
6020;BME280;3038;51.122;6.840;2023-03-19T06:09:10;63325.50;;;-144.63;100.00
6020;BME280;3038;51.122;6.840;2023-03-19T06:11:35;63325.50;;;-144.63;100.00
6020;BME280;3038;51.122;6.840;2023-03-19T06:14:03;63325.50;;;-144.63;100.00
6020;BME280;3038;51.122;6.840;2023-03-19T06:16:29;63325.50;;;-144.63;100.00
6020;BME280;3038;51.122;6.840;2023-03-19T06:18:54;63325.50;;;-144.63;100.00
6020;BME280;3038;51.122;6.840;2023-03-19T06:21:20;63325.50;;;-144.63;100.00
6020;BME280;3038;51.122;6.840;2023-03-19T06:23:45;63325.50;;;-144.63;100.00
6020;BME280;3038;51.122;6.840;2023-03-19T06:26:11;63325.50;;;-144.63;100.00
6020;BME280;3038;51.122;6.840;2023-03-19T06:28:36;63325.50;;;-144.63;100.00
6020;BME280;3038;51.122;6.840;2023-03-19T06:31:01;63325.50;;;-144.63;100.00
6020;BME280;3038;51.122;6.840;2023-03-19T06:33:27;63325.50;;;-144.63;100.00
6020;BME280;3038;51.122;6.840;2023-03-19T06:35:56;63325.50;;;-144.63;100.00
6020;BME280;3038;51.122;6.840;2023-03-19T06:38:22;63325.50;;;-144.63;100.00
6020;BME280;3038;51.122;6.840;2023-03-19T06:40:47;63325.50;;;-144.63;100.00
6020;BME280;3038;51.122;6.840;2023-03-19T06:43:15;63325.50;;;-144.63;100.00
6020;BME280;3038;51.122;6.840;2023-03-19T06:45:41;63325.50;;;-144.63;100.00
6020;BME280;3038;51.122;6.840;2023-03-19T06:48:06;63325.50;;;-144.63;100.00
6020;BME280;3038;51.122;6.840;2023-03-19T06:50:32;63325.50;;;-144.63;100.00
6020;BME280;3038;51.122;6.840;2023-03-19T06:52:57;63325.50;;;-144.63;100.00
6020;BME280;3038;51.122;6.840;2023-03-19T06:55:23;63325.50;;;-144.63;100.00
6020;BME280;3038;51.122;6.840;2023-03-19T06:57:49;63325.50;;;-144.63;100.00
6020;BME280;3038;51.122;6.840;2023-03-19T07:00:15;63325.50;;;-144.63;100.00
6020;BME280;3038;51.122;6.840;2023-03-19T07:02:41;63325.50;;;-144.63;100.00
6020;BME280;3038;51.122;6.840;2023-03-19T07:05:06;63325.50;;;-144.63;100.00
6020;BME280;3038;51.122;6.840;2023-03-19T07:07:32;63325.50;;;-144.63;100.00
6020;BME280;3038;51.122;6.840;2023-03-19T07:09:57;63325.50;;;-144.63;100.00
6020;BME280;3038;51.122;6.840;2023-03-19T07:12:22;63325.50;;;-144.63;100.00
6020;BME280;3038;51.122;6.840;2023-03-19T07:14:48;63325.50;;;-144.63;100.00
6020;BME280;3038;51.122;6.840;2023-03-19T07:17:13;63325.50;;;-144.63;100.00
6020;BME280;3038;51.122;6.840;2023-03-19T07:19:38;63325.50;;;-144.63;100.00
6020;BME280;3038;51.122;6.840;2023-03-19T07:22:04;63325.50;;;-144.63;100.00
6020;BME280;3038;51.122;6.840;2023-03-19T07:24:29;63325.50;;;-144.63;100.00
6020;BME280;3038;51.122;6.840;2023-03-19T07:26:55;63325.50;;;-144.63;100.00
6020;BME280;3038;51.122;6.840;2023-03-19T07:29:21;63325.50;;;-144.63;100.00
6020;BME280;3038;51.122;6.840;2023-03-19T07:31:46;63325.50;;;-144.63;100.00
6020;BME280;3038;51.122;6.840;2023-03-19T07:34:12;63325.50;;;-144.63;100.00
6020;BME280;3038;51.122;6.840;2023-03-19T07:36:37;63325.50;;;-144.63;100.00
6020;BME280;3038;51.122;6.840;2023-03-19T07:39:03;63325.50;;;-144.63;100.00
6020;BME280;3038;51.122;6.840;2023-03-19T07:41:28;63325.50;;;-144.63;100.00
6020;BME280;3038;51.122;6.840;2023-03-19T07:43:53;63325.50;;;-144.63;100.00
6020;BME280;3038;51.122;6.840;2023-03-19T07:46:19;63325.50;;;-144.63;100.00
6020;BME280;3038;51.122;6.840;2023-03-19T07:48:45;63325.50;;;-144.63;100.00
6020;BME280;3038;51.122;6.840;2023-03-19T07:51:11;63325.50;;;-144.63;100.00
6020;BME280;3038;51.122;6.840;2023-03-19T07:53:36;63325.50;;;-144.63;100.00
6020;BME280;3038;51.122;6.840;2023-03-19T07:56:02;63325.50;;;-144.63;100.00
6020;BME280;3038;51.122;6.840;2023-03-19T07:58:27;63325.50;;;-144.63;100.00
6020;BME280;3038;51.122;6.840;2023-03-19T08:00:53;63325.50;;;-144.63;100.00
6020;BME280;3038;51.122;6.840;2023-03-19T08:03:18;63325.50;;;-144.63;100.00
6020;BME280;3038;51.122;6.840;2023-03-19T08:05:44;63325.50;;;-144.63;100.00
6020;BME280;3038;51.122;6.840;2023-03-19T08:08:09;63325.50;;;-144.63;100.00
6020;BME280;3038;51.122;6.840;2023-03-19T08:10:34;63325.50;;;-144.63;100.00
6020;BME280;3038;51.122;6.840;2023-03-19T08:13:00;63325.50;;;-144.63;100.00
6020;BME280;3038;51.122;6.840;2023-03-19T08:15:25;63325.50;;;-144.63;100.00
6020;BME280;3038;51.122;6.840;2023-03-19T08:17:59;63325.50;;;-144.63;100.00
6020;BME280;3038;51.122;6.840;2023-03-19T08:20:25;63325.50;;;-144.63;100.00
6020;BME280;3038;51.122;6.840;2023-03-19T08:22:50;63325.50;;;-144.63;100.00
6020;BME280;3038;51.122;6.840;2023-03-19T08:25:16;63325.50;;;-144.63;100.00
6020;BME280;3038;51.122;6.840;2023-03-19T08:27:41;63325.50;;;-144.63;100.00
6020;BME280;3038;51.122;6.840;2023-03-19T08:30:08;63325.50;;;-144.63;100.00
6020;BME280;3038;51.122;6.840;2023-03-19T08:32:35;63325.50;;;-144.63;100.00
6020;BME280;3038;51.122;6.840;2023-03-19T08:35:01;63325.50;;;-144.63;100.00
6020;BME280;3038;51.122;6.840;2023-03-19T08:37:27;63325.50;;;-144.63;100.00
6020;BME280;3038;51.122;6.840;2023-03-19T08:39:52;63325.50;;;-144.63;100.00
6020;BME280;3038;51.122;6.840;2023-03-19T08:42:18;63325.50;;;-144.63;100.00
6020;BME280;3038;51.122;6.840;2023-03-19T08:44:44;63325.50;;;-144.63;100.00
6020;BME280;3038;51.122;6.840;2023-03-19T08:47:09;63325.50;;;-144.63;100.00
6020;BME280;3038;51.122;6.840;2023-03-19T08:49:36;63325.50;;;-144.63;100.00
6020;BME280;3038;51.122;6.840;2023-03-19T08:52:02;63325.50;;;-144.63;100.00
6020;BME280;3038;51.122;6.840;2023-03-19T08:54:28;63325.50;;;-144.63;100.00
6020;BME280;3038;51.122;6.840;2023-03-19T08:56:53;63325.50;;;-144.63;100.00
6020;BME280;3038;51.122;6.840;2023-03-19T08:59:19;63325.50;;;-144.63;100.00
6020;BME280;3038;51.122;6.840;2023-03-19T09:01:44;63325.50;;;-144.63;100.00
6020;BME280;3038;51.122;6.840;2023-03-19T09:04:09;63325.50;;;-144.63;100.00
6020;BME280;3038;51.122;6.840;2023-03-19T09:06:35;63325.50;;;-144.63;100.00
6020;BME280;3038;51.122;6.840;2023-03-19T09:09:00;63325.50;;;-144.63;100.00
6020;BME280;3038;51.122;6.840;2023-03-19T09:11:25;63325.50;;;-144.63;100.00
6020;BME280;3038;51.122;6.840;2023-03-19T09:13:51;63325.50;;;-144.63;100.00
6020;BME280;3038;51.122;6.840;2023-03-19T09:16:16;63325.50;;;-144.63;100.00
6020;BME280;3038;51.122;6.840;2023-03-19T09:18:42;63325.50;;;-144.63;100.00
6020;BME280;3038;51.122;6.840;2023-03-19T09:21:08;63325.50;;;-144.63;100.00
6020;BME280;3038;51.122;6.840;2023-03-19T09:23:33;63325.50;;;-144.63;100.00
6020;BME280;3038;51.122;6.840;2023-03-19T09:25:58;63325.50;;;-144.63;100.00
6020;BME280;3038;51.122;6.840;2023-03-19T09:28:24;63325.50;;;-144.63;100.00
6020;BME280;3038;51.122;6.840;2023-03-19T09:30:50;63325.50;;;-144.63;100.00
6020;BME280;3038;51.122;6.840;2023-03-19T09:33:17;63325.50;;;-144.63;100.00
6020;BME280;3038;51.122;6.840;2023-03-19T09:35:49;63325.50;;;-144.63;100.00
6020;BME280;3038;51.122;6.840;2023-03-19T09:38:14;63325.50;;;-144.63;100.00
6020;BME280;3038;51.122;6.840;2023-03-19T09:40:45;63325.50;;;-144.63;100.00
6020;BME280;3038;51.122;6.840;2023-03-19T09:44:12;63325.50;;;-144.63;100.00
6020;BME280;3038;51.122;6.840;2023-03-19T09:46:17;63325.50;;;-144.63;100.00
6020;BME280;3038;51.122;6.840;2023-03-19T09:48:55;63325.50;;;-144.63;100.00
6020;BME280;3038;51.122;6.840;2023-03-19T09:51:46;63325.50;;;-144.63;100.00
6020;BME280;3038;51.122;6.840;2023-03-19T09:54:43;63325.50;;;-144.63;100.00
6020;BME280;3038;51.122;6.840;2023-03-19T09:57:11;63325.50;;;-144.63;100.00
6020;BME280;3038;51.122;6.840;2023-03-19T09:59:37;63325.50;;;-144.63;100.00
6020;BME280;3038;51.122;6.840;2023-03-19T10:02:27;63325.50;;;-144.63;100.00
6020;BME280;3038;51.122;6.840;2023-03-19T10:08:10;63325.50;;;-144.63;100.00
6020;BME280;3038;51.122;6.840;2023-03-19T10:10:56;63325.50;;;-144.63;100.00
6020;BME280;3038;51.122;6.840;2023-03-19T10:14:07;63325.50;;;-144.63;100.00
6020;BME280;3038;51.122;6.840;2023-03-19T10:16:38;63325.50;;;-144.63;100.00
6020;BME280;3038;51.122;6.840;2023-03-19T10:19:05;63325.50;;;-144.63;100.00
6020;BME280;3038;51.122;6.840;2023-03-19T10:21:47;63325.50;;;-144.63;100.00
6020;BME280;3038;51.122;6.840;2023-03-19T10:24:21;63325.50;;;-144.63;100.00
6020;BME280;3038;51.122;6.840;2023-03-19T10:26:47;63325.50;;;-144.63;100.00
6020;BME280;3038;51.122;6.840;2023-03-19T10:29:18;63325.50;;;-144.63;100.00
6020;BME280;3038;51.122;6.840;2023-03-19T10:31:52;63325.50;;;-144.63;100.00
6020;BME280;3038;51.122;6.840;2023-03-19T10:34:33;63325.50;;;-144.63;100.00
6020;BME280;3038;51.122;6.840;2023-03-19T10:39:40;63325.50;;;-144.63;100.00
6020;BME280;3038;51.122;6.840;2023-03-19T10:44:45;63325.50;;;-144.63;100.00
6020;BME280;3038;51.122;6.840;2023-03-19T10:47:14;63325.50;;;-144.63;100.00
6020;BME280;3038;51.122;6.840;2023-03-19T10:49:40;63325.50;;;-144.63;100.00
6020;BME280;3038;51.122;6.840;2023-03-19T10:52:16;63325.50;;;-144.63;100.00
6020;BME280;3038;51.122;6.840;2023-03-19T10:54:43;63325.50;;;-144.63;100.00
6020;BME280;3038;51.122;6.840;2023-03-19T10:57:24;63325.50;;;-144.63;100.00
6020;BME280;3038;51.122;6.840;2023-03-19T10:59:50;63325.50;;;-144.63;100.00
6020;BME280;3038;51.122;6.840;2023-03-19T11:02:18;63325.50;;;-144.63;100.00
6020;BME280;3038;51.122;6.840;2023-03-19T11:04:44;63325.50;;;-144.63;100.00
6020;BME280;3038;51.122;6.840;2023-03-19T11:07:13;63325.50;;;-144.63;100.00
6020;BME280;3038;51.122;6.840;2023-03-19T11:09:43;63325.50;;;-144.63;100.00
6020;BME280;3038;51.122;6.840;2023-03-19T11:12:21;63325.50;;;-144.63;100.00
6020;BME280;3038;51.122;6.840;2023-03-19T11:14:50;63325.50;;;-144.63;100.00
6020;BME280;3038;51.122;6.840;2023-03-19T11:17:27;63325.50;;;-144.63;100.00
6020;BME280;3038;51.122;6.840;2023-03-19T11:19:56;63325.50;;;-144.63;100.00
6020;BME280;3038;51.122;6.840;2023-03-19T11:22:31;63325.50;;;-144.63;100.00
6020;BME280;3038;51.122;6.840;2023-03-19T11:25:25;63325.50;;;-144.63;100.00
6020;BME280;3038;51.122;6.840;2023-03-19T11:28:17;63325.50;;;-144.63;100.00
6020;BME280;3038;51.122;6.840;2023-03-19T11:31:11;63325.50;;;-144.63;100.00
6020;BME280;3038;51.122;6.840;2023-03-19T11:36:41;63325.50;;;-144.63;100.00
6020;BME280;3038;51.122;6.840;2023-03-19T11:39:23;63325.50;;;-144.63;100.00
6020;BME280;3038;51.122;6.840;2023-03-19T11:50:18;63325.50;;;-144.63;100.00
6020;BME280;3038;51.122;6.840;2023-03-19T11:55:53;63325.50;;;-144.63;100.00
6020;BME280;3038;51.122;6.840;2023-03-19T12:00:51;63325.50;;;-144.63;100.00
6020;BME280;3038;51.122;6.840;2023-03-19T12:03:59;63325.50;;;-144.63;100.00
6020;BME280;3038;51.122;6.840;2023-03-19T12:12:20;63325.50;;;-144.63;100.00
6020;BME280;3038;51.122;6.840;2023-03-19T12:15:15;63325.50;;;-144.63;100.00
6020;BME280;3038;51.122;6.840;2023-03-19T12:18:42;63325.50;;;-144.63;100.00
6020;BME280;3038;51.122;6.840;2023-03-19T12:21:08;63325.50;;;-144.63;100.00
6020;BME280;3038;51.122;6.840;2023-03-19T12:23:41;63325.50;;;-144.63;100.00
6020;BME280;3038;51.122;6.840;2023-03-19T12:34:41;63325.50;;;-144.63;100.00
6020;BME280;3038;51.122;6.840;2023-03-19T12:37:19;63325.50;;;-144.63;100.00
6020;BME280;3038;51.122;6.840;2023-03-19T12:42:38;63325.50;;;-144.63;100.00
6020;BME280;3038;51.122;6.840;2023-03-19T12:45:15;63325.50;;;-144.63;100.00
6020;BME280;3038;51.122;6.840;2023-03-19T12:47:45;63325.50;;;-144.63;100.00
6020;BME280;3038;51.122;6.840;2023-03-19T12:50:13;63325.50;;;-144.63;100.00
6020;BME280;3038;51.122;6.840;2023-03-19T12:52:49;63325.50;;;-144.63;100.00
6020;BME280;3038;51.122;6.840;2023-03-19T12:58:22;63325.50;;;-144.63;100.00
6020;BME280;3038;51.122;6.840;2023-03-19T13:01:11;63325.50;;;-144.63;100.00
6020;BME280;3038;51.122;6.840;2023-03-19T13:03:58;63325.50;;;-144.63;100.00
6020;BME280;3038;51.122;6.840;2023-03-19T13:11:54;101099.41;;;14.71;67.80
6020;BME280;3038;51.122;6.840;2023-03-19T13:14:33;101102.81;;;14.65;68.08
6020;BME280;3038;51.122;6.840;2023-03-19T13:17:12;101104.09;;;14.69;67.81
6020;BME280;3038;51.122;6.840;2023-03-19T13:19:46;101097.56;;;14.72;68.19
6020;BME280;3038;51.122;6.840;2023-03-19T13:22:19;101094.72;;;14.73;69.68
6020;BME280;3038;51.122;6.840;2023-03-19T13:24:46;101087.41;;;14.67;68.97
6020;BME280;3038;51.122;6.840;2023-03-19T13:27:26;101086.41;;;14.68;70.40
6020;BME280;3038;51.122;6.840;2023-03-19T13:30:17;101091.03;;;14.74;70.31
6020;BME280;3038;51.122;6.840;2023-03-19T13:32:46;101093.66;;;14.82;69.06
6020;BME280;3038;51.122;6.840;2023-03-19T13:38:00;101089.84;;;15.00;69.54
6020;BME280;3038;51.122;6.840;2023-03-19T13:40:47;101090.56;;;15.31;68.81
6020;BME280;3038;51.122;6.840;2023-03-19T13:53:42;101076.81;;;15.72;66.92
6020;BME280;3038;51.122;6.840;2023-03-19T13:56:16;101076.59;;;15.88;67.38
6020;BME280;3038;51.122;6.840;2023-03-19T13:58:52;101083.06;;;15.94;66.63
6020;BME280;3038;51.122;6.840;2023-03-19T14:01:37;101091.22;;;15.86;66.04
6020;BME280;3038;51.122;6.840;2023-03-19T14:04:14;101079.63;;;15.85;65.70